createdAt,value
2023-02-24T00:00:17.000Z,4.000000000000002
2023-02-24T00:00:45.000Z,4.000000000000002
2023-02-24T00:01:15.000Z,4.000000000000002
2023-02-24T00:01:45.000Z,4.000000000000002
2023-02-24T00:02:20.000Z,4.000000000000002
2023-02-24T00:02:50.000Z,4.000000000000002
2023-02-24T00:03:15.000Z,4.000000000000002
2023-02-24T00:03:40.000Z,4.000000000000002
2023-02-24T00:04:10.000Z,4.000000000000002
2023-02-24T00:04:45.000Z,4.000000000000002
2023-02-24T00:05:15.000Z,4.000000000000002
2023-02-24T00:05:45.000Z,3.888888888888889
2023-02-24T00:06:20.000Z,3.888888888888889
2023-02-24T00:06:50.000Z,4.000000000000002
2023-02-24T00:07:23.000Z,4.000000000000002
2023-02-24T00:07:55.000Z,4.000000000000002
2023-02-24T00:08:26.000Z,4.000000000000002
2023-02-24T00:09:00.000Z,4.000000000000002
2023-02-24T00:09:16.000Z,4.000000000000002
2023-02-24T00:09:45.000Z,4.000000000000002
2023-02-24T00:10:20.000Z,3.888888888888889
2023-02-24T00:10:50.000Z,3.888888888888889
2023-02-24T00:11:25.000Z,3.888888888888889
2023-02-24T00:11:55.000Z,3.888888888888889
2023-02-24T00:12:17.000Z,3.888888888888889
2023-02-24T00:12:45.000Z,3.888888888888889
2023-02-24T00:13:15.000Z,3.888888888888889
2023-02-24T00:13:45.000Z,3.888888888888889
2023-02-24T00:14:20.000Z,3.888888888888889
2023-02-24T00:14:50.000Z,3.888888888888889
2023-02-24T00:15:15.000Z,3.888888888888889
2023-02-24T00:15:40.000Z,3.888888888888889
2023-02-24T00:16:10.000Z,3.888888888888889
2023-02-24T00:16:45.000Z,3.888888888888889
2023-02-24T00:17:15.000Z,3.888888888888889
2023-02-24T00:17:45.000Z,3.888888888888889
2023-02-24T00:18:20.000Z,3.888888888888889
2023-02-24T00:18:50.000Z,3.888888888888889
2023-02-24T00:19:23.000Z,3.888888888888889
2023-02-24T00:19:55.000Z,3.888888888888889
2023-02-24T00:20:17.000Z,3.888888888888889
2023-02-24T00:20:45.000Z,3.888888888888889
2023-02-24T00:21:15.000Z,3.888888888888889
2023-02-24T00:21:47.000Z,3.888888888888889
2023-02-24T00:22:21.000Z,3.888888888888889
2023-02-24T00:22:48.000Z,3.888888888888889
2023-02-24T00:23:15.000Z,3.888888888888889
2023-02-24T00:23:41.000Z,3.888888888888889
2023-02-24T00:24:10.000Z,3.7777777777777763
2023-02-24T00:24:45.000Z,3.7222222222222237
2023-02-24T00:25:15.000Z,3.7222222222222237
2023-02-24T00:25:45.000Z,3.7222222222222237
2023-02-24T00:26:20.000Z,3.7222222222222237
2023-02-24T00:26:50.000Z,3.7222222222222237
2023-02-24T00:27:25.000Z,3.7222222222222237
2023-02-24T00:27:55.000Z,3.7222222222222237
2023-02-24T00:28:17.000Z,3.7222222222222237
2023-02-24T00:28:45.000Z,3.7222222222222237
2023-02-24T00:29:15.000Z,3.7222222222222237
2023-02-24T00:29:45.000Z,3.7222222222222237
2023-02-24T00:30:20.000Z,3.7222222222222237
2023-02-24T00:30:50.000Z,3.7222222222222237
2023-02-24T00:31:20.000Z,3.7222222222222237
2023-02-24T00:31:56.000Z,3.7222222222222237
2023-02-24T00:32:17.000Z,3.7222222222222237
2023-02-24T00:32:45.000Z,3.7222222222222237
2023-02-24T00:33:15.000Z,3.7222222222222237
2023-02-24T00:33:45.000Z,3.7222222222222237
2023-02-24T00:34:20.000Z,3.7222222222222237
2023-02-24T00:34:50.000Z,3.7222222222222237
2023-02-24T00:35:15.000Z,3.7222222222222237
2023-02-24T00:35:40.000Z,3.7222222222222237
2023-02-24T00:36:10.000Z,3.7222222222222237
2023-02-24T00:36:42.000Z,3.7222222222222237
2023-02-24T00:37:12.000Z,3.611111111111111
2023-02-24T00:37:36.000Z,3.611111111111111
2023-02-24T00:38:01.000Z,3.611111111111111
2023-02-24T00:38:30.000Z,3.611111111111111
2023-02-24T00:38:53.000Z,3.611111111111111
2023-02-24T00:39:20.000Z,3.611111111111111
2023-02-24T00:39:36.000Z,3.611111111111111
2023-02-24T00:39:55.000Z,3.611111111111111
2023-02-24T00:40:15.000Z,3.611111111111111
2023-02-24T00:40:45.000Z,3.611111111111111
2023-02-24T00:41:15.000Z,3.611111111111111
2023-02-24T00:41:45.000Z,3.611111111111111
2023-02-24T00:42:20.000Z,3.611111111111111
2023-02-24T00:42:51.000Z,3.7222222222222237
2023-02-24T00:43:23.000Z,3.7222222222222237
2023-02-24T00:43:55.000Z,3.7222222222222237
2023-02-24T00:44:17.000Z,3.7222222222222237
2023-02-24T00:44:45.000Z,3.7222222222222237
2023-02-24T00:45:15.000Z,3.7222222222222237
2023-02-24T00:45:55.000Z,3.7222222222222237
2023-02-24T00:46:21.000Z,3.7222222222222237
2023-02-24T00:46:52.000Z,3.7222222222222237
2023-02-24T00:47:20.000Z,3.611111111111111
2023-02-24T00:47:55.000Z,3.611111111111111
2023-02-24T00:48:18.000Z,3.611111111111111
2023-02-24T00:48:45.000Z,3.611111111111111
2023-02-24T00:49:15.000Z,3.611111111111111
2023-02-24T00:49:45.000Z,3.611111111111111
2023-02-24T00:50:20.000Z,3.611111111111111
2023-02-24T00:50:50.000Z,3.611111111111111
2023-02-24T00:51:15.000Z,3.611111111111111
2023-02-24T00:51:40.000Z,3.611111111111111
2023-02-24T00:52:10.000Z,3.611111111111111
2023-02-24T00:52:41.000Z,3.611111111111111
2023-02-24T00:53:15.000Z,3.611111111111111
2023-02-24T00:53:45.000Z,3.611111111111111
2023-02-24T00:54:20.000Z,3.7222222222222237
2023-02-24T00:54:50.000Z,3.611111111111111
2023-02-24T00:55:15.000Z,3.7222222222222237
2023-02-24T00:55:41.000Z,3.7222222222222237
2023-02-24T00:56:08.000Z,3.611111111111111
2023-02-24T00:56:35.000Z,3.611111111111111
2023-02-24T00:57:01.000Z,3.611111111111111
2023-02-24T00:57:28.000Z,3.611111111111111
2023-02-24T00:57:45.000Z,3.7222222222222237
2023-02-24T00:58:20.000Z,3.7222222222222237
2023-02-24T00:58:50.000Z,3.7222222222222237
2023-02-24T00:59:15.000Z,3.7222222222222237
2023-02-24T00:59:40.000Z,3.7222222222222237
2023-02-24T01:00:10.000Z,3.7222222222222237
2023-02-24T01:00:45.000Z,3.7222222222222237
2023-02-24T01:01:15.000Z,3.7222222222222237
2023-02-24T01:01:45.000Z,3.7222222222222237
2023-02-24T01:02:20.000Z,3.7222222222222237
2023-02-24T01:02:50.000Z,3.7222222222222237
2023-02-24T01:03:20.000Z,3.7222222222222237
2023-02-24T01:03:37.000Z,3.7222222222222237
2023-02-24T01:04:08.000Z,3.7222222222222237
2023-02-24T01:04:45.000Z,3.7222222222222237
2023-02-24T01:05:25.000Z,3.7222222222222237
2023-02-24T01:05:48.000Z,3.7222222222222237
2023-02-24T01:06:15.000Z,3.7222222222222237
2023-02-24T01:06:45.000Z,3.7222222222222237
2023-02-24T01:07:15.000Z,3.7222222222222237
2023-02-24T01:07:40.000Z,3.7222222222222237
2023-02-24T01:08:10.000Z,3.7222222222222237
2023-02-24T01:08:40.000Z,3.7222222222222237
2023-02-24T01:09:00.000Z,3.7222222222222237
2023-02-24T01:09:28.000Z,3.7222222222222237
2023-02-24T01:09:45.000Z,3.7222222222222237
2023-02-24T01:10:20.000Z,3.7222222222222237
2023-02-24T01:10:50.000Z,3.611111111111111
2023-02-24T01:11:20.000Z,3.611111111111111
2023-02-24T01:11:55.000Z,3.611111111111111
2023-02-24T01:12:17.000Z,3.611111111111111
2023-02-24T01:12:40.000Z,3.277777777777777
2023-02-24T01:13:01.000Z,3.277777777777777
2023-02-24T01:13:28.000Z,3.277777777777777
2023-02-24T01:14:10.000Z,3.277777777777777
2023-02-24T01:14:35.000Z,3.277777777777777
2023-02-24T01:15:05.000Z,3.277777777777777
2023-02-24T01:15:36.000Z,3.277777777777777
2023-02-24T01:15:55.000Z,3.277777777777777
2023-02-24T01:16:16.000Z,3.277777777777777
2023-02-24T01:16:40.000Z,3.277777777777777
2023-02-24T01:17:15.000Z,3.277777777777777
2023-02-24T01:17:45.000Z,3.277777777777777
2023-02-24T01:18:20.000Z,3.277777777777777
2023-02-24T01:18:50.000Z,3.277777777777777
2023-02-24T01:19:20.000Z,3.277777777777777
2023-02-24T01:19:55.000Z,3.277777777777777
2023-02-24T01:20:17.000Z,3.277777777777777
2023-02-24T01:20:41.000Z,3.277777777777777
2023-02-24T01:21:12.000Z,3.277777777777777
2023-02-24T01:21:36.000Z,3.277777777777777
2023-02-24T01:22:01.000Z,3.277777777777777
2023-02-24T01:22:30.000Z,3.277777777777777
2023-02-24T01:22:53.000Z,3.277777777777777
2023-02-24T01:23:20.000Z,3.277777777777777
2023-02-24T01:23:45.000Z,3.277777777777777
2023-02-24T01:24:11.000Z,3.277777777777777
2023-02-24T01:24:45.000Z,3.277777777777777
2023-02-24T01:25:25.000Z,3.277777777777777
2023-02-24T01:25:48.000Z,3.277777777777777
2023-02-24T01:26:15.000Z,3.277777777777777
2023-02-24T01:26:45.000Z,3.277777777777777
2023-02-24T01:27:15.000Z,3.277777777777777
2023-02-24T01:27:41.000Z,3.277777777777777
2023-02-24T01:28:08.000Z,3.277777777777777
2023-02-24T01:28:35.000Z,3.277777777777777
2023-02-24T01:29:01.000Z,3.2222222222222205
2023-02-24T01:29:30.000Z,3.2222222222222205
2023-02-24T01:30:00.000Z,3.2222222222222205
2023-02-24T01:30:35.000Z,3.2222222222222205
2023-02-24T01:31:05.000Z,3.277777777777777
2023-02-24T01:31:36.000Z,3.277777777777777
2023-02-24T01:31:55.000Z,3.277777777777777
2023-02-24T01:32:17.000Z,3.2222222222222205
2023-02-24T01:32:41.000Z,3.2222222222222205
2023-02-24T01:33:15.000Z,3.2222222222222205
2023-02-24T01:33:45.000Z,3.2222222222222205
2023-02-24T01:34:21.000Z,3.2222222222222205
2023-02-24T01:34:50.000Z,3.2222222222222205
2023-02-24T01:35:20.000Z,3.2222222222222205
2023-02-24T01:35:45.000Z,3.2222222222222205
2023-02-24T01:36:11.000Z,3.2222222222222205
2023-02-24T01:36:45.000Z,3.2222222222222205
2023-02-24T01:37:25.000Z,3.2222222222222205
2023-02-24T01:37:49.000Z,3.2222222222222205
2023-02-24T01:38:15.000Z,3.2222222222222205
2023-02-24T01:38:45.000Z,3.2222222222222205
2023-02-24T01:39:15.000Z,3.2222222222222205
2023-02-24T01:39:41.000Z,3.2222222222222205
2023-02-24T01:40:10.000Z,3.2222222222222205
2023-02-24T01:40:45.000Z,3.2222222222222205
2023-02-24T01:41:25.000Z,3.2222222222222205
2023-02-24T01:41:48.000Z,3.111111111111112
2023-02-24T01:42:15.000Z,3.111111111111112
2023-02-24T01:42:50.000Z,3.111111111111112
2023-02-24T01:43:15.000Z,3.111111111111112
2023-02-24T01:43:41.000Z,3.2222222222222205
2023-02-24T01:44:08.000Z,3.2222222222222205
2023-02-24T01:44:35.000Z,3.2222222222222205
2023-02-24T01:45:01.000Z,3.2222222222222205
2023-02-24T01:45:30.000Z,3.2222222222222205
2023-02-24T01:46:00.000Z,3.2222222222222205
2023-02-24T01:46:35.000Z,3.2222222222222205
2023-02-24T01:47:05.000Z,3.2222222222222205
2023-02-24T01:47:36.000Z,3.2222222222222205
2023-02-24T01:47:55.000Z,3.2222222222222205
2023-02-24T01:48:17.000Z,3.2222222222222205
2023-02-24T01:48:40.000Z,3.2222222222222205
2023-02-24T01:49:00.000Z,3.2222222222222205
2023-02-24T01:49:30.000Z,3.2222222222222205
2023-02-24T01:50:00.000Z,3.2222222222222205
2023-02-24T01:50:34.000Z,3.2222222222222205
2023-02-24T01:51:05.000Z,3.2222222222222205
2023-02-24T01:51:37.000Z,3.2222222222222205
2023-02-24T01:52:08.000Z,3.2222222222222205
2023-02-24T01:52:35.000Z,3.2222222222222205
2023-02-24T01:53:01.000Z,3.2222222222222205
2023-02-24T01:53:25.000Z,3.2222222222222205
2023-02-24T01:53:45.000Z,3.2222222222222205
2023-02-24T01:54:20.000Z,3.2222222222222205
2023-02-24T01:54:50.000Z,3.2222222222222205
2023-02-24T01:55:20.000Z,3.2222222222222205
2023-02-24T01:55:36.000Z,3.2222222222222205
2023-02-24T01:55:56.000Z,3.2222222222222205
2023-02-24T01:56:17.000Z,3.2222222222222205
2023-02-24T01:56:40.000Z,3.2222222222222205
2023-02-24T01:57:00.000Z,3.2222222222222205
2023-02-24T01:57:28.000Z,3.2222222222222205
2023-02-24T01:57:46.000Z,3.2222222222222205
2023-02-24T01:58:20.000Z,3.2222222222222205
2023-02-24T01:58:50.000Z,3.2222222222222205
2023-02-24T01:59:20.000Z,3.2222222222222205
2023-02-24T01:59:36.000Z,3.2222222222222205
2023-02-24T02:00:05.000Z,3.2222222222222205
2023-02-24T02:00:35.000Z,3.2222222222222205
2023-02-24T02:01:01.000Z,3.2222222222222205
2023-02-24T02:01:25.000Z,3.2222222222222205
2023-02-24T02:01:48.000Z,3.2222222222222205
2023-02-24T02:02:15.000Z,3.2222222222222205
2023-02-24T02:02:32.000Z,3.2222222222222205
2023-02-24T02:02:50.000Z,3.2222222222222205
2023-02-24T02:03:15.000Z,3.2222222222222205
2023-02-24T02:03:41.000Z,3.2222222222222205
2023-02-24T02:04:10.000Z,3.2222222222222205
2023-02-24T02:04:40.000Z,3.2222222222222205
2023-02-24T02:05:00.000Z,3.2222222222222205
2023-02-24T02:05:30.000Z,2.999999999999999
2023-02-24T02:06:00.000Z,3.2222222222222205
2023-02-24T02:06:35.000Z,2.999999999999999
2023-02-24T02:07:05.000Z,2.999999999999999
2023-02-24T02:07:36.000Z,2.999999999999999
2023-02-24T02:07:56.000Z,2.999999999999999
2023-02-24T02:08:17.000Z,2.999999999999999
2023-02-24T02:08:40.000Z,2.999999999999999
2023-02-24T02:09:00.000Z,2.999999999999999
2023-02-24T02:09:29.000Z,2.999999999999999
2023-02-24T02:09:45.000Z,3.2222222222222205
2023-02-24T02:10:20.000Z,3.2222222222222205
2023-02-24T02:10:48.000Z,2.999999999999999
2023-02-24T02:11:15.000Z,2.999999999999999
2023-02-24T02:11:41.000Z,2.999999999999999
2023-02-24T02:12:08.000Z,2.8888888888888906
2023-02-24T02:12:35.000Z,2.8888888888888906
2023-02-24T02:13:01.000Z,2.8888888888888906
2023-02-24T02:13:30.000Z,2.8888888888888906
2023-02-24T02:14:05.000Z,3.111111111111112
2023-02-24T02:14:36.000Z,2.8888888888888906
2023-02-24T02:15:04.000Z,2.8888888888888906
2023-02-24T02:15:20.000Z,2.8888888888888906
2023-02-24T02:15:55.000Z,2.8888888888888906
2023-02-24T02:16:18.000Z,2.8888888888888906
2023-02-24T02:16:40.000Z,2.8888888888888906
2023-02-24T02:17:00.000Z,2.8888888888888906
2023-02-24T02:17:30.000Z,2.8888888888888906
2023-02-24T02:18:00.000Z,2.8888888888888906
2023-02-24T02:18:35.000Z,2.8888888888888906
2023-02-24T02:19:05.000Z,2.8888888888888906
2023-02-24T02:19:36.000Z,2.8888888888888906
2023-02-24T02:19:55.000Z,2.8888888888888906
2023-02-24T02:20:17.000Z,2.8888888888888906
2023-02-24T02:20:40.000Z,2.8888888888888906
2023-02-24T02:21:00.000Z,2.8888888888888906
2023-02-24T02:21:30.000Z,2.8888888888888906
2023-02-24T02:22:00.000Z,2.7777777777777777
2023-02-24T02:22:44.000Z,2.7777777777777777
2023-02-24T02:23:07.000Z,2.7777777777777777
2023-02-24T02:23:30.000Z,2.7777777777777777
2023-02-24T02:23:55.000Z,2.7777777777777777
2023-02-24T02:24:17.000Z,2.7777777777777777
2023-02-24T02:24:40.000Z,2.7777777777777777
2023-02-24T02:25:00.000Z,2.7777777777777777
2023-02-24T02:25:29.000Z,2.7777777777777777
2023-02-24T02:26:00.000Z,2.7777777777777777
2023-02-24T02:26:35.000Z,2.7777777777777777
2023-02-24T02:27:05.000Z,2.7777777777777777
2023-02-24T02:27:36.000Z,2.7777777777777777
2023-02-24T02:27:55.000Z,2.7777777777777777
2023-02-24T02:28:17.000Z,2.7777777777777777
2023-02-24T02:28:41.000Z,2.7777777777777777
2023-02-24T02:29:15.000Z,2.7777777777777777
2023-02-24T02:29:45.000Z,2.7777777777777777
2023-02-24T02:30:30.000Z,2.7777777777777777
2023-02-24T02:30:53.000Z,2.7777777777777777
2023-02-24T02:31:20.000Z,2.7777777777777777
2023-02-24T02:31:55.000Z,2.7777777777777777
2023-02-24T02:32:18.000Z,2.7777777777777777
2023-02-24T02:32:45.000Z,2.7777777777777777
2023-02-24T02:33:25.000Z,2.7777777777777777
2023-02-24T02:33:48.000Z,2.7777777777777777
2023-02-24T02:34:15.000Z,2.7777777777777777
2023-02-24T02:34:45.000Z,2.7777777777777777
2023-02-24T02:35:05.000Z,2.7777777777777777
2023-02-24T02:35:36.000Z,2.7777777777777777
2023-02-24T02:35:55.000Z,2.7777777777777777
2023-02-24T02:36:15.000Z,2.7777777777777777
2023-02-24T02:36:40.000Z,2.7777777777777777
2023-02-24T02:37:15.000Z,2.7777777777777777
2023-02-24T02:37:45.000Z,2.7777777777777777
2023-02-24T02:38:20.000Z,2.7777777777777777
2023-02-24T02:38:50.000Z,2.7777777777777777
2023-02-24T02:39:20.000Z,2.7777777777777777
2023-02-24T02:39:55.000Z,2.7222222222222214
2023-02-24T02:40:17.000Z,2.7222222222222214
2023-02-24T02:40:40.000Z,2.7222222222222214
2023-02-24T02:41:15.000Z,2.7222222222222214
2023-02-24T02:41:55.000Z,2.7222222222222214
2023-02-24T02:42:21.000Z,2.7222222222222214
2023-02-24T02:42:52.000Z,2.7222222222222214
2023-02-24T02:43:15.000Z,2.7222222222222214
2023-02-24T02:43:41.000Z,2.7222222222222214
2023-02-24T02:44:08.000Z,2.7222222222222214
2023-02-24T02:44:35.000Z,2.7222222222222214
2023-02-24T02:45:01.000Z,2.7222222222222214
2023-02-24T02:45:25.000Z,2.7222222222222214
2023-02-24T02:45:48.000Z,2.7222222222222214
2023-02-24T02:46:15.000Z,2.7222222222222214
2023-02-24T02:46:45.000Z,2.6111111111111125
2023-02-24T02:47:15.000Z,2.6111111111111125
2023-02-24T02:47:40.000Z,2.6111111111111125
2023-02-24T02:48:10.000Z,2.6111111111111125
2023-02-24T02:48:40.000Z,2.6111111111111125
2023-02-24T02:49:15.000Z,2.6111111111111125
2023-02-24T02:49:45.000Z,2.6111111111111125
2023-02-24T02:50:20.000Z,2.6111111111111125
2023-02-24T02:50:50.000Z,2.5
2023-02-24T02:51:20.000Z,2.5
2023-02-24T02:51:36.000Z,2.5
2023-02-24T02:51:55.000Z,2.5
2023-02-24T02:52:15.000Z,2.5
2023-02-24T02:52:40.000Z,2.5
2023-02-24T02:53:00.000Z,2.5
2023-02-24T02:53:15.000Z,2.5
2023-02-24T02:53:45.000Z,2.5
2023-02-24T02:54:20.000Z,2.5
2023-02-24T02:54:50.000Z,2.3888888888888875
2023-02-24T02:55:20.000Z,2.3888888888888875
2023-02-24T02:55:36.000Z,2.3888888888888875
2023-02-24T02:55:55.000Z,2.3888888888888875
2023-02-24T02:56:17.000Z,2.3888888888888875
2023-02-24T02:56:40.000Z,2.3888888888888875
2023-02-24T02:57:15.000Z,2.3888888888888875
2023-02-24T02:57:45.000Z,2.3888888888888875
2023-02-24T02:58:20.000Z,2.3888888888888875
2023-02-24T02:58:50.000Z,2.3888888888888875
2023-02-24T02:59:20.000Z,2.3888888888888875
2023-02-24T02:59:36.000Z,2.3888888888888875
2023-02-24T02:59:55.000Z,2.3888888888888875
2023-02-24T03:00:17.000Z,2.3888888888888875
2023-02-24T03:00:45.000Z,2.3888888888888875
2023-02-24T03:01:15.000Z,2.3888888888888875
2023-02-24T03:01:55.000Z,2.3888888888888875
2023-02-24T03:02:21.000Z,2.3888888888888875
2023-02-24T03:02:52.000Z,2.3888888888888875
2023-02-24T03:03:15.000Z,2.3888888888888875
2023-02-24T03:03:40.000Z,2.3888888888888875
2023-02-24T03:04:10.000Z,2.3888888888888875
2023-02-24T03:04:40.000Z,2.3888888888888875
2023-02-24T03:05:15.000Z,2.3888888888888875
2023-02-24T03:05:45.000Z,2.3888888888888875
2023-02-24T03:06:20.000Z,2.3888888888888875
2023-02-24T03:06:50.000Z,2.3888888888888875
2023-02-24T03:07:20.000Z,2.3888888888888875
2023-02-24T03:07:36.000Z,2.2777777777777786
2023-02-24T03:07:55.000Z,2.2777777777777786
2023-02-24T03:08:17.000Z,2.2777777777777786
2023-02-24T03:08:40.000Z,2.2777777777777786
2023-02-24T03:09:00.000Z,2.2777777777777786
2023-02-24T03:09:28.000Z,2.2777777777777786
2023-02-24T03:09:45.000Z,2.2777777777777786
2023-02-24T03:10:15.000Z,2.2777777777777786
2023-02-24T03:10:45.000Z,2.2777777777777786
2023-02-24T03:11:15.000Z,2.2777777777777786
2023-02-24T03:11:41.000Z,2.2777777777777786
2023-02-24T03:12:08.000Z,2.2777777777777786
2023-02-24T03:12:45.000Z,2.2777777777777786
2023-02-24T03:13:25.000Z,2.2777777777777786
2023-02-24T03:13:48.000Z,2.2777777777777786
2023-02-24T03:14:15.000Z,2.2777777777777786
2023-02-24T03:14:45.000Z,2.2777777777777786
2023-02-24T03:15:15.000Z,2.2222222222222223
2023-02-24T03:15:41.000Z,2.2222222222222223
2023-02-24T03:16:08.000Z,2.2222222222222223
2023-02-24T03:16:35.000Z,2.2222222222222223
2023-02-24T03:17:01.000Z,2.2222222222222223
2023-02-24T03:17:31.000Z,2.2222222222222223
2023-02-24T03:18:05.000Z,2.2222222222222223
2023-02-24T03:18:36.000Z,2.2222222222222223
2023-02-24T03:19:05.000Z,2.2222222222222223
2023-02-24T03:19:36.000Z,2.1111111111111094
2023-02-24T03:20:10.000Z,2.1111111111111094
2023-02-24T03:20:40.000Z,2.1111111111111094
2023-02-24T03:21:15.000Z,2.1111111111111094
2023-02-24T03:21:45.000Z,2.2222222222222223
2023-02-24T03:22:20.000Z,2.2222222222222223
2023-02-24T03:22:50.000Z,2.2222222222222223
2023-02-24T03:23:20.000Z,2.2222222222222223
2023-02-24T03:23:55.000Z,2.2222222222222223
2023-02-24T03:24:17.000Z,2.2222222222222223
2023-02-24T03:24:40.000Z,2.2222222222222223
2023-02-24T03:25:16.000Z,2.2222222222222223
2023-02-24T03:25:44.000Z,2.2222222222222223
2023-02-24T03:26:10.000Z,2.2222222222222223
2023-02-24T03:26:44.000Z,2.2222222222222223
2023-02-24T03:27:15.000Z,2.2222222222222223
2023-02-24T03:27:41.000Z,2.2222222222222223
2023-02-24T03:28:08.000Z,2.2222222222222223
2023-02-24T03:28:25.000Z,2.2222222222222223
2023-02-24T03:29:00.000Z,2.2222222222222223
2023-02-24T03:29:28.000Z,2.2222222222222223
2023-02-24T03:30:00.000Z,2.000000000000001
2023-02-24T03:30:35.000Z,1.8888888888888882
2023-02-24T03:31:05.000Z,1.8888888888888882
2023-02-24T03:31:36.000Z,1.8888888888888882
2023-02-24T03:31:55.000Z,1.8888888888888882
2023-02-24T03:32:17.000Z,1.8888888888888882
2023-02-24T03:32:40.000Z,1.8888888888888882
2023-02-24T03:33:15.000Z,2.000000000000001
2023-02-24T03:33:45.000Z,2.000000000000001
2023-02-24T03:34:20.000Z,2.000000000000001
2023-02-24T03:34:50.000Z,2.000000000000001
2023-02-24T03:35:20.000Z,2.000000000000001
2023-02-24T03:35:36.000Z,2.000000000000001
2023-02-24T03:35:55.000Z,1.8888888888888882
2023-02-24T03:36:18.000Z,1.8888888888888882
2023-02-24T03:36:40.000Z,1.8888888888888882
2023-02-24T03:37:15.000Z,1.7777777777777795
2023-02-24T03:37:45.000Z,1.7777777777777795
2023-02-24T03:38:20.000Z,1.7777777777777795
2023-02-24T03:38:50.000Z,1.7777777777777795
2023-02-24T03:39:20.000Z,1.7777777777777795
2023-02-24T03:39:36.000Z,1.7777777777777795
2023-02-24T03:39:55.000Z,1.7777777777777795
2023-02-24T03:40:17.000Z,1.7777777777777795
2023-02-24T03:40:40.000Z,1.7777777777777795
2023-02-24T03:41:25.000Z,1.7777777777777795
2023-02-24T03:41:45.000Z,1.7777777777777795
2023-02-24T03:42:20.000Z,1.7777777777777795
2023-02-24T03:42:50.000Z,1.7777777777777795
2023-02-24T03:43:20.000Z,1.7777777777777795
2023-02-24T03:43:55.000Z,1.7777777777777795
2023-02-24T03:44:17.000Z,1.7777777777777795
2023-02-24T03:44:40.000Z,1.7777777777777795
2023-02-24T03:45:01.000Z,1.7777777777777795
2023-02-24T03:45:28.000Z,1.7777777777777795
2023-02-24T03:46:00.000Z,1.7777777777777795
2023-02-24T03:46:20.000Z,1.7777777777777795
2023-02-24T03:46:50.000Z,1.7777777777777795
2023-02-24T03:47:20.000Z,1.7777777777777795
2023-02-24T03:47:36.000Z,1.7777777777777795
2023-02-24T03:48:08.000Z,1.7777777777777795
2023-02-24T03:48:35.000Z,1.7777777777777795
2023-02-24T03:49:01.000Z,1.7777777777777795
2023-02-24T03:49:25.000Z,1.7777777777777795
2023-02-24T03:49:48.000Z,1.7777777777777795
2023-02-24T03:50:20.000Z,1.7777777777777795
2023-02-24T03:50:50.000Z,1.7777777777777795
2023-02-24T03:51:20.000Z,1.7777777777777795
2023-02-24T03:51:36.000Z,1.7777777777777795
2023-02-24T03:51:55.000Z,1.7777777777777795
2023-02-24T03:52:15.000Z,1.7777777777777795
2023-02-24T03:52:40.000Z,1.7777777777777795
2023-02-24T03:53:00.000Z,1.7777777777777795
2023-02-24T03:53:15.000Z,1.7777777777777795
2023-02-24T03:53:45.000Z,1.7777777777777795
2023-02-24T03:54:20.000Z,1.7777777777777795
2023-02-24T03:54:50.000Z,1.7777777777777795
2023-02-24T03:55:20.000Z,1.7777777777777795
2023-02-24T03:55:36.000Z,1.6111111111111103
2023-02-24T03:55:55.000Z,1.6111111111111103
2023-02-24T03:56:17.000Z,1.3888888888888888
2023-02-24T03:56:45.000Z,1.3888888888888888
2023-02-24T03:57:15.000Z,1.3888888888888888
2023-02-24T03:57:45.000Z,1.5000000000000016
2023-02-24T03:58:20.000Z,1.5000000000000016
2023-02-24T03:58:50.000Z,1.5000000000000016
2023-02-24T03:59:20.000Z,1.5000000000000016
2023-02-24T03:59:36.000Z,1.6111111111111103
2023-02-24T03:59:56.000Z,1.6111111111111103
2023-02-24T04:00:18.000Z,1.6111111111111103
2023-02-24T04:00:40.000Z,1.6111111111111103
2023-02-24T04:01:00.000Z,1.6111111111111103
2023-02-24T04:01:28.000Z,1.6111111111111103
2023-02-24T04:01:45.000Z,1.7777777777777795
2023-02-24T04:02:20.000Z,1.7777777777777795
2023-02-24T04:02:50.000Z,1.7777777777777795
2023-02-24T04:03:20.000Z,1.7777777777777795
2023-02-24T04:03:37.000Z,1.7777777777777795
2023-02-24T04:04:08.000Z,1.7777777777777795
2023-02-24T04:04:35.000Z,1.7777777777777795
2023-02-24T04:05:01.000Z,1.7777777777777795
2023-02-24T04:05:25.000Z,1.7777777777777795
2023-02-24T04:05:45.000Z,1.7777777777777795
2023-02-24T04:06:20.000Z,1.7777777777777795
2023-02-24T04:06:50.000Z,1.7777777777777795
2023-02-24T04:07:20.000Z,1.7777777777777795
2023-02-24T04:07:36.000Z,1.7777777777777795
2023-02-24T04:07:55.000Z,2.000000000000001
2023-02-24T04:08:17.000Z,2.000000000000001
2023-02-24T04:08:40.000Z,2.000000000000001
2023-02-24T04:09:15.000Z,2.000000000000001
2023-02-24T04:09:45.000Z,2.000000000000001
2023-02-24T04:10:20.000Z,2.000000000000001
2023-02-24T04:10:50.000Z,2.000000000000001
2023-02-24T04:11:20.000Z,2.1111111111111094
2023-02-24T04:12:05.000Z,2.1111111111111094
2023-02-24T04:12:35.000Z,2.1111111111111094
2023-02-24T04:13:01.000Z,2.000000000000001
2023-02-24T04:13:25.000Z,2.000000000000001
2023-02-24T04:13:48.000Z,2.000000000000001
2023-02-24T04:14:15.000Z,2.000000000000001
2023-02-24T04:14:45.000Z,2.000000000000001
2023-02-24T04:15:15.000Z,2.000000000000001
2023-02-24T04:15:41.000Z,2.000000000000001
2023-02-24T04:16:08.000Z,2.000000000000001